Latest Weather Observations for Bundaberg

IDQ60801

Issued at 4:21 am EST Sunday 21 April 2019 (issued every 10 minutes, with the page automatically refreshed every 10 minutes)

About weather observations | Map of weather stations | Latest weather observations for QLD | Other Formats
Station Details ID: 039128 Name: BUNDABERG AERO Lat: -24.91 Lon: 152.32 Height: 30.82 m
Data from the previous 72 hours. | See also: Recent months at Bundaberg
Date/Time
EST
Temp
°C
App
Temp
°C
Dew
Point
°C
Rel
Hum
%
Delta-T
°C
Wind Press
QNH
hPa
Press
MSL
hPa
Rain since
9am
mm
Dir  Spd
km/h
Gust
km/h
Spd
kts
Gust
kts
21/04:00am 21.5 24.0 21.0 97 0.3 S 9 13 5 7 1016.9 1016.8 2.6
21/03:30am 21.7 24.2 21.0 96 0.5 SE 9 13 5 7 1016.9 1016.8 2.6
21/03:13am 21.8 23.5 21.0 95 0.5 ESE 13 17 7 9 1017.0 1016.9 2.6
21/03:00am 21.8 23.2 21.0 95 0.5 ESE 15 20 8 11 1017.1 1017.0 2.6
21/02:30am 21.9 22.0 21.1 95 0.5 E 22 30 12 16 1017.1 1017.0 2.6
21/02:00am 21.1 20.8 20.3 95 0.5 ESE 22 30 12 16 1017.4 1017.3 2.4
21/01:36am 21.2 19.8 20.5 96 0.5 SE 28 37 15 20 1017.6 1017.5 2.4
21/01:30am 21.2 19.9 20.7 97 0.3 SE 28 37 15 20 1017.6 1017.5 2.4
21/01:19am 21.1 19.7 20.4 96 0.5 SE 28 37 15 20 1017.8 1017.7 2.0
21/01:07am 21.1 19.3 20.3 95 0.5 SE 30 43 16 23 1017.8 1017.7 1.4
21/01:00am 21.1 19.5 20.1 94 0.6 SE 28 43 15 23 1017.9 1017.8 1.2
21/12:46am 21.1 20.0 20.3 95 0.5 SE 26 39 14 21 1018.0 1017.9 1.0
21/12:30am 21.2 22.3 20.5 96 0.5 SE 15 20 8 11 1018.0 1017.9 0.6
21/12:29am 21.2 22.3 20.4 95 0.5 SE 15 20 8 11 1018.0 1017.9 0.6
21/12:00am 21.0 19.9 19.5 91 1.0 ESE 24 35 13 19 1017.9 1017.8 0.4
 
Date/Time
EST
Temp
°C
App
Temp
°C
Dew
Point
°C
Rel
Hum
%
Delta-T
°C
Wind Press
QNH
hPa
Press
MSL
hPa
Rain since
9am
mm
Dir  Spd
km/h
Gust
km/h
Spd
kts
Gust
kts
20/11:30pm 21.5 21.6 20.3 93 0.8 SSE 20 26 11 14 1018.1 1018.0 0.0
20/11:00pm 21.2 22.1 20.0 93 0.8 SSE 15 22 8 12 1018.1 1018.0 0.0
20/10:30pm 21.2 21.6 19.8 92 0.9 SSE 17 22 9 12 1018.3 1018.2 0.0
20/10:00pm 21.3 22.1 19.9 92 0.9 SSE 15 22 8 12 1018.3 1018.2 0.0
20/09:30pm 21.4 22.3 20.0 92 0.9 S 15 24 8 13 1018.3 1018.2 0.0
20/09:00pm 21.5 22.8 20.1 92 0.9 S 13 17 7 9 1018.3 1018.2 0.0
20/08:30pm 21.7 23.0 20.2 91 1.0 SSE 13 22 7 12 1018.4 1018.3 0.0
20/08:00pm 21.8 23.1 20.1 90 1.1 SSE 13 17 7 9 1018.4 1018.3 0.0
20/07:30pm 22.0 22.9 20.1 89 1.2 SSE 15 22 8 12 1018.3 1018.2 0.0
20/07:00pm 22.1 23.6 19.8 87 1.5 SSE 11 17 6 9 1017.7 1017.6 0.0
20/06:30pm 22.5 23.7 19.9 85 1.7 SSE 13 19 7 10 1017.2 1017.1 0.0
20/06:00pm 23.0 22.7 19.2 79 2.4 SE 19 24 10 13 1017.1 1017.0 0.0
20/05:30pm 23.8 21.6 18.7 73 3.2 SE 28 39 15 21 1017.3 1017.2 0.0
20/05:00pm 25.3 22.9 19.2 69 3.9 ESE 30 35 16 19 1016.9 1016.8 0.0
20/04:30pm 26.3 24.8 19.4 66 4.5 ESE 26 37 14 20 1016.8 1016.7 0.0
20/04:00pm 27.0 24.6 19.1 62 5.1 ESE 30 37 16 20 1016.4 1016.3 0.0
20/03:30pm 27.0 23.9 18.3 59 5.5 ESE 32 41 17 22 1016.5 1016.4 0.0
20/03:00pm 27.9 24.4 18.0 55 6.3 ESE 33 41 18 22 1016.3 1016.2 0.0
20/02:30pm 27.3 24.2 18.3 58 5.7 ESE 32 43 17 23 1016.4 1016.3 0.0
20/02:00pm 27.7 24.9 18.1 56 6.1 ESE 30 39 16 21 1016.6 1016.5 0.0
20/01:30pm 27.9 25.0 18.0 55 6.3 ESE 30 43 16 23 1016.6 1016.5 0.0
20/01:00pm 27.4 24.4 18.7 59 5.6 ESE 32 43 17 23 1017.0 1016.9 0.0
20/12:30pm 27.2 24.7 18.8 60 5.4 ESE 30 41 16 22 1017.5 1017.4 0.0
20/12:00pm 27.1 23.7 18.1 58 5.7 ESE 33 43 18 23 1017.7 1017.6 0.0
20/11:30am 27.3 23.7 18.6 59 5.6 ESE 35 43 19 23 1018.2 1018.1 0.0
20/11:00am 27.3 24.3 19.9 64 4.8 ESE 35 50 19 27 1018.6 1018.5 0.0
20/10:30am 26.8 24.2 19.9 66 4.5 ESE 33 41 18 22 1019.1 1019.0 0.0
20/10:00am 25.8 25.2 21.2 76 3.0 SE 26 39 14 21 1019.4 1019.3 0.0
20/09:30am 23.4 23.5 20.3 83 2.0 SSE 20 32 11 17 1019.3 1019.2 0.0
20/09:00am 22.3 23.2 20.8 91 1.0 SSE 17 24 9 13 1019.5 1019.4 6.2
20/08:30am 21.8 23.2 21.1 96 0.5 SSE 15 20 8 11 1019.4 1019.3 6.2
20/08:00am 21.1 21.9 20.6 97 0.3 SE 17 26 9 14 1019.4 1019.3 6.2
20/07:42am 21.0 21.6 20.3 96 0.5 SSE 17 20 9 11 1019.2 1019.1 5.6
20/07:30am 20.9 22.2 20.2 96 0.4 SSE 13 20 7 11 1019.1 1019.0 5.4
20/07:21am 20.9 21.8 20.1 95 0.5 SSE 15 20 8 11 1018.9 1018.8 3.2
20/07:00am 20.8 22.0 20.0 95 0.5 SSE 13 19 7 10 1018.6 1018.5 1.2
20/06:30am 20.7 21.6 20.0 96 0.4 SSE 15 19 8 10 1018.2 1018.1 1.2
20/06:00am 20.5 22.0 19.7 95 0.5 S 11 17 6 9 1017.9 1017.8 1.2
20/05:30am 20.6 21.4 19.8 95 0.5 SSE 15 20 8 11 1017.7 1017.6 1.2
20/05:00am 20.6 21.4 19.9 96 0.4 SSE 15 22 8 12 1017.4 1017.3 1.2
20/04:30am 20.5 21.7 19.8 96 0.4 SSE 13 19 7 10 1017.3 1017.2 1.2
20/04:00am 20.5 21.7 19.8 96 0.4 SSE 13 19 7 10 1017.3 1017.2 1.2
20/03:53am 20.5 21.7 19.8 96 0.4 SSE 13 20 7 11 1017.3 1017.2 1.2
20/03:41am 20.5 21.2 19.7 95 0.5 SSE 15 20 8 11 1017.4 1017.3 1.2
20/03:37am 20.5 21.2 19.7 95 0.5 SSE 15 22 8 12 1017.4 1017.3 1.2
20/03:30am 20.5 20.8 19.7 95 0.5 SSE 17 24 9 13 1017.3 1017.2 1.2
20/03:27am 20.4 20.3 19.6 95 0.5 SSE 19 24 10 13 1017.3 1017.2 1.2
20/03:00am 20.6 20.3 19.6 94 0.6 SSE 20 30 11 16 1017.3 1017.2 0.8
20/02:55am 20.5 20.2 19.5 94 0.6 SSE 20 30 11 16 1017.3 1017.2 0.8
20/02:30am 20.4 21.0 19.4 94 0.6 SSE 15 22 8 12 1017.2 1017.1 0.4
20/02:00am 20.0 20.4 19.0 94 0.6 S 15 20 8 11 1017.5 1017.4 0.4
20/01:30am 19.9 21.0 18.9 94 0.6 S 11 17 6 9 1017.8 1017.7 0.4
20/01:00am 19.9 20.5 18.7 93 0.7 S 13 17 7 9 1018.1 1018.0 0.4
20/12:30am 20.0 20.7 18.8 93 0.8 S 13 19 7 10 1018.4 1018.3 0.4
20/12:00am 20.0 20.3 18.8 93 0.8 S 15 20 8 11 1018.7 1018.6 0.4
 
Date/Time
EST
Temp
°C
App
Temp
°C
Dew
Point
°C
Rel
Hum
%
Delta-T
°C
Wind Press
QNH
hPa
Press
MSL
hPa
Rain since
9am
mm
Dir  Spd
km/h
Gust
km/h
Spd
kts
Gust
kts
19/11:30pm 19.9 20.5 18.7 93 0.8 S 13 19 7 10 1019.0 1018.9 0.4
19/11:00pm 20.0 20.6 18.7 92 0.8 S 13 17 7 9 1019.4 1019.3 0.4
19/10:30pm 20.0 21.3 18.5 91 0.9 S 9 13 5 7 1019.6 1019.5 0.4
19/10:00pm 20.1 20.9 18.2 89 1.2 S 11 15 6 8 1019.7 1019.6 0.4
19/09:30pm 20.4 21.3 18.5 89 1.2 S 11 17 6 9 1019.8 1019.7 0.4
19/09:00pm 20.7 21.3 18.6 88 1.3 S 13 17 7 9 1019.9 1019.8 0.4
19/08:30pm 20.7 21.3 18.5 87 1.4 S 13 17 7 9 1019.8 1019.7 0.4
19/08:00pm 21.0 21.5 18.4 85 1.6 S 13 19 7 10 1019.5 1019.4 0.4
19/07:30pm 21.4 22.0 18.6 84 1.8 S 13 19 7 10 1019.4 1019.3 0.4
19/07:00pm 21.7 22.3 18.5 82 2.0 S 13 17 7 9 1019.1 1019.0 0.4
19/06:30pm 22.1 23.0 18.3 79 2.4 SSE 11 17 6 9 1018.8 1018.7 0.4
19/06:00pm 22.6 22.3 18.2 76 2.7 SE 17 22 9 12 1018.6 1018.5 0.4
19/05:30pm 23.5 22.4 18.6 74 3.1 SE 22 28 12 15 1018.5 1018.4 0.4
19/05:00pm 23.8 22.9 19.1 75 3.0 SE 22 32 12 17 1018.1 1018.0 0.4
19/04:30pm 23.5 23.8 19.6 79 2.5 SE 17 24 9 13 1018.0 1017.9 0.4
19/04:00pm 26.8 25.2 18.4 60 5.3 SE 24 33 13 18 1017.7 1017.6 0.0
19/03:30pm 26.8 24.5 18.4 60 5.4 SE 28 35 15 19 1017.6 1017.5 0.0
19/03:00pm 26.3 23.6 19.2 65 4.6 SE 32 43 17 23 1017.6 1017.5 0.0
19/02:52pm 27.0 24.8 18.8 60 5.3 SE 28 43 15 23 1017.6 1017.5 0.0
19/02:30pm 24.7 25.1 19.8 74 3.2 SSE 17 24 9 13 1017.7 1017.6 0.0
19/02:00pm 27.4 25.6 17.8 55 6.1 SSE 24 41 13 22 1017.7 1017.6 0.0
19/01:30pm 28.4 24.5 17.9 53 6.7 SE 35 46 19 25 1018.0 1017.9 0.0
19/01:00pm 24.9 21.5 19.1 70 3.7 SE 35 46 19 25 1018.4 1018.3 0.0
19/12:30pm 28.8 26.9 18.6 54 6.6 SE 26 37 14 20 1018.6 1018.5 0.0
19/12:00pm 27.4 24.9 18.1 57 5.9 SE 28 37 15 20 1019.3 1019.2 0.0
19/11:45am 24.5 22.1 18.2 68 4.0 SE 28 46 15 25 1019.6 1019.5 0.0
19/11:30am 25.3 24.2 19.4 70 3.8 SE 24 35 13 19 1020.1 1020.0 0.0
19/11:00am 26.5 23.2 16.1 52 6.4 SE 28 39 15 21 1020.4 1020.3 0.0
19/10:30am 26.8 24.0 17.3 56 6.0 SE 28 37 15 20 1020.6 1020.5 0.0
19/10:00am 25.6 22.9 17.5 61 5.1 SE 28 37 15 20 1021.0 1020.9 0.0
19/09:30am 25.5 23.3 17.9 63 4.8 SSE 26 33 14 18 1021.1 1021.0 0.0
19/09:00am 24.6 23.7 18.1 67 4.1 SSE 20 30 11 16 1021.1 1021.0 0.0
19/08:30am 23.5 22.6 17.7 70 3.6 SSE 19 30 10 16 1021.1 1021.0 0.0
19/08:00am 22.3 21.4 17.7 75 2.8 SSE 19 32 10 17 1021.0 1020.9 0.0
19/07:30am 20.7 20.9 17.7 83 1.9 S 13 22 7 12 1020.8 1020.7 0.0
19/07:00am 19.1 19.0 16.9 87 1.3 S 13 17 7 9 1020.5 1020.4 0.0
19/06:30am 18.5 18.3 16.7 89 1.1 S 13 19 7 10 1020.3 1020.2 0.0
19/06:00am 18.3 18.4 16.5 89 1.1 S 11 17 6 9 1020.0 1019.9 0.0
19/05:30am 18.5 18.3 16.7 89 1.1 SSW 13 17 7 9 1019.8 1019.7 0.0
19/05:00am 18.6 18.4 16.6 88 1.2 S 13 19 7 10 1019.6 1019.5 0.0
19/04:30am 18.8 19.0 16.8 88 1.2 SSW 11 17 6 9 1019.6 1019.5 0.0
19/04:00am 18.9 18.7 16.7 87 1.3 S 13 17 7 9 1019.6 1019.5 0.0
19/03:30am 18.8 19.3 16.6 87 1.3 SSW 9 13 5 7 1019.6 1019.5 0.0
19/03:00am 18.7 19.3 16.7 88 1.2 S 9 13 5 7 1019.8 1019.7 0.0
19/02:30am 18.6 18.7 16.6 88 1.2 S 11 15 6 8 1019.9 1019.8 0.0
19/02:00am 18.7 18.5 16.7 88 1.2 SSW 13 17 7 9 1020.0 1019.9 0.0
19/01:30am 18.8 19.0 16.8 88 1.2 SSW 11 15 6 8 1020.4 1020.3 0.0
19/01:00am 18.9 19.1 16.7 87 1.3 S 11 17 6 9 1020.8 1020.7 0.0
19/12:30am 19.0 19.2 16.8 87 1.3 S 11 13 6 7 1021.1 1021.0 0.0
19/12:00am 19.3 19.6 17.1 87 1.3 S 11 15 6 8 1021.2 1021.1 0.0
 
Date/Time
EST
Temp
°C
App
Temp
°C
Dew
Point
°C
Rel
Hum
%
Delta-T
°C
Wind Press
QNH
hPa
Press
MSL
hPa
Rain since
9am
mm
Dir  Spd
km/h
Gust
km/h
Spd
kts
Gust
kts
18/11:30pm 19.1 19.7 16.7 86 1.4 S 9 13 5 7 1021.5 1021.4 0.0
18/11:00pm 19.4 19.7 17.0 86 1.5 S 11 15 6 8 1021.7 1021.6 0.0
18/10:30pm 19.5 19.8 16.9 85 1.6 S 11 15 6 8 1021.7 1021.6 0.0
18/10:00pm 19.7 19.9 16.7 83 1.8 S 11 15 6 8 1021.9 1021.8 0.0
18/09:30pm 19.7 20.1 16.3 81 2.0 S 9 13 5 7 1022.0 1021.9 0.0
18/09:00pm 20.2 20.2 16.2 78 2.4 S 11 13 6 7 1022.0 1021.9 0.0
18/08:30pm 20.8 20.9 16.4 76 2.7 S 11 15 6 8 1021.9 1021.8 0.0
18/08:00pm 20.9 21.4 16.5 76 2.7 SSE 9 13 5 7 1021.5 1021.4 0.0
18/07:30pm 20.4 19.8 15.6 74 2.9 SE 13 15 7 8 1021.3 1021.2 0.0
18/07:00pm 21.1 21.4 16.1 73 3.0 SE 9 11 5 6 1020.9 1020.8 0.0
18/06:30pm 22.5 21.3 16.1 67 3.9 SE 17 20 9 11 1020.4 1020.3 0.0
18/06:00pm 23.3 21.7 16.4 65 4.2 ESE 20 26 11 14 1019.9 1019.8 0.0
18/05:30pm 24.0 21.8 16.8 64 4.4 ESE 24 35 13 19 1019.3 1019.2 0.0
18/05:00pm 25.1 21.9 16.3 58 5.4 ESE 28 33 15 18 1018.8 1018.7 0.0
18/04:30pm 26.0 22.2 15.7 53 6.3 ESE 30 41 16 22 1018.5 1018.4 0.0
18/04:00pm 26.6 22.7 15.6 50 6.7 ESE 30 37 16 20 1018.2 1018.1 0.0
18/03:30pm 26.9 22.8 16.5 53 6.4 ESE 33 43 18 23 1018.0 1017.9 0.0
18/03:00pm 27.4 23.6 16.7 52 6.6 ESE 32 43 17 23 1018.0 1017.9 0.0
18/02:30pm 27.7 23.5 15.7 48 7.4 ESE 32 41 17 22 1018.0 1017.9 0.0
18/02:00pm 28.2 24.0 15.8 47 7.6 SE 32 41 17 22 1018.3 1018.2 0.0
18/01:30pm 28.0 24.4 16.3 49 7.3 ESE 30 39 16 21 1018.4 1018.3 0.0
18/01:00pm 28.5 25.6 16.1 47 7.7 ESE 26 33 14 18 1018.7 1018.6 0.0
18/12:30pm 28.1 25.0 15.7 46 7.6 SE 26 33 14 18 1019.2 1019.1 0.0
18/12:00pm 28.0 25.3 15.6 46 7.6 SE 24 33 13 18 1019.5 1019.4 0.0
18/11:30am 27.5 25.0 15.2 47 7.5 SE 22 32 12 17 1019.9 1019.8 0.0
18/11:00am 27.2 24.8 16.5 52 6.6 SE 24 32 13 17 1020.6 1020.5 0.0
18/10:30am 27.0 24.7 17.5 56 6.0 SE 26 35 14 19 1020.9 1020.8 0.0
18/10:00am 25.5 22.7 16.4 57 5.6 SE 26 35 14 19 1021.1 1021.0 0.0
18/09:30am 25.1 23.4 17.3 62 4.9 SE 22 32 12 17 1021.4 1021.3 0.0
18/09:00am 23.9 22.6 17.2 66 4.1 SSE 20 26 11 14 1021.3 1021.2 1.6
18/08:30am 23.3 23.0 18.2 73 3.2 SSE 17 28 9 15 1021.2 1021.1 1.6
18/08:00am 21.3 20.5 17.1 77 2.6 SSE 17 22 9 12 1020.8 1020.7 1.6
18/07:30am 19.8 19.3 16.8 83 1.8 SSE 15 26 8 14 1020.7 1020.6 1.6
18/07:00am 18.5 18.2 16.5 88 1.2 S 13 19 7 10 1020.4 1020.3 1.6
18/06:30am 18.1 18.1 16.3 89 1.1 S 11 19 6 10 1020.1 1020.0 1.6
18/06:00am 17.8 17.7 16.1 90 1.0 S 11 17 6 9 1019.7 1019.6 1.6
18/05:30am 17.8 17.7 16.0 89 1.1 S 11 17 6 9 1019.3 1019.2 1.6
18/05:00am 17.9 17.5 16.1 89 1.1 S 13 17 7 9 1019.3 1019.2 1.6
18/04:30am 17.6 17.1 15.9 90 1.0 S 13 19 7 10 1018.9 1018.8 1.6

Other formats

Comma delimited format used in spreadsheet applications
http://www.bom.gov.au/fwo/IDQ60801/IDQ60801.94387.axf

JavaScript Object Notation format (JSON) in row-major order
http://www.bom.gov.au/fwo/IDQ60801/IDQ60801.94387.json

Data quality

Most of these data are generated automatically and are frequently updated. Quality checks on data are not normally performed. It is possible for incorrect values to appear. Refer to information at About Latest Weather Observations and please check the disclaimer before using these data.